Time;durP1;ratioP1;P1;durP2;ratioP2;P2;SDS_P1;SDS_P2;PMS_P1;PMS_P2;Temp;Humidity;BMP_temperature;BMP_pressure;BME280_temperature;BME280_humidity;BME280_pressure;Samples;Min_cycle;Max_cycle;Signal;HPM_P1;HPM_P2
2021/08/23 00:02:16;;;;;;;2.50;1.33;;;;;;;28.60;37.92;97012.91;4992278;28;20439;-28
2021/08/23 00:04:41;;;;;;;3.35;1.60;;;;;;;28.60;37.88;97018.19;4996897;28;20057;-28
2021/08/23 00:07:06;;;;;;;2.10;1.15;;;;;;;28.60;37.98;97012.91;4993337;28;20030;-27
2021/08/23 00:09:32;;;;;;;3.30;1.10;;;;;;;28.60;38.02;97007.63;4991747;28;21556;-26
2021/08/23 00:11:58;;;;;;;3.40;1.40;;;;;;;28.60;37.78;97006.81;4993175;28;20054;-28
2021/08/23 00:14:23;;;;;;;2.28;1.33;;;;;;;28.60;37.84;97007.63;4996760;28;20284;-27
2021/08/23 00:16:48;;;;;;;1.80;1.30;;;;;;;28.59;37.92;97003.31;4988368;28;20041;-28
2021/08/23 00:19:14;;;;;;;2.00;1.10;;;;;;;28.60;37.86;97007.63;4994066;28;20030;-29
2021/08/23 00:21:43;;;;;;;2.90;1.35;;;;;;;28.61;37.86;97004.06;4995980;28;20037;-28
2021/08/23 00:24:21;;;;;;;2.50;1.20;;;;;;;28.60;37.80;97007.63;4994695;28;20057;-29
2021/08/23 00:26:54;;;;;;;4.28;1.20;;;;;;;28.60;37.78;97015.53;4995521;28;20077;-26
2021/08/23 00:29:20;;;;;;;2.47;1.40;;;;;;;28.60;37.69;97009.44;4988732;28;20548;-26
2021/08/23 00:31:45;;;;;;;2.35;1.30;;;;;;;28.60;37.97;97006.81;4986584;28;20034;-28
2021/08/23 00:34:11;;;;;;;2.50;1.42;;;;;;;28.58;37.74;96998.97;4998256;28;20659;-31
2021/08/23 00:36:36;;;;;;;2.45;1.45;;;;;;;28.59;37.90;97008.56;4995143;28;20033;-28
2021/08/23 00:39:03;;;;;;;1.92;1.30;;;;;;;28.58;37.72;97004.25;4991668;28;20030;-29
2021/08/23 00:41:31;;;;;;;3.63;1.38;;;;;;;28.59;37.78;97003.31;4990197;28;20585;-28
2021/08/23 00:43:56;;;;;;;2.75;1.23;;;;;;;28.59;37.76;97000.66;4991238;28;20032;-30
2021/08/23 00:46:22;;;;;;;2.63;1.30;;;;;;;28.60;37.78;97001.53;4987564;28;20030;-28
2021/08/23 00:48:47;;;;;;;1.20;1.00;;;;;;;28.59;37.83;97000.66;4996375;28;20033;-27
2021/08/23 00:51:12;;;;;;;1.95;1.13;;;;;;;28.59;37.72;96999.81;4997668;28;20104;-28
2021/08/23 00:53:38;;;;;;;5.80;1.10;;;;;;;28.59;37.80;96991.91;4997521;28;20503;-30
2021/08/23 00:56:03;;;;;;;4.28;1.33;;;;;;;28.59;37.87;96998.03;4974793;28;20030;-28
2021/08/23 00:58:29;;;;;;;3.13;1.30;;;;;;;28.60;37.69;97002.34;4981041;28;20033;-29
2021/08/23 01:01:00;;;;;;;3.28;1.80;;;;;;;28.59;37.95;97003.31;4982302;28;20037;-26
2021/08/23 01:04:06;;;;;;;3.03;1.15;;;;;;;28.59;37.84;97000.66;4965513;28;20076;-31
2021/08/23 01:06:32;;;;;;;2.50;1.38;;;;;;;28.59;37.90;97007.72;4980763;28;20156;-31
2021/08/23 01:09:04;;;;;;;2.47;1.33;;;;;;;28.58;37.78;96998.97;4983700;28;20038;-26
2021/08/23 01:11:30;;;;;;;3.72;1.00;;;;;;;28.60;37.65;97010.25;4971957;28;20032;-28
2021/08/23 01:13:55;;;;;;;2.10;1.05;;;;;;;28.59;37.80;97011.22;4976948;28;20028;-27
2021/08/23 01:16:21;;;;;;;2.97;1.42;;;;;;;28.59;37.66;97005.94;4990936;28;20042;-27
2021/08/23 01:18:46;;;;;;;2.65;1.00;;;;;;;28.60;37.53;97007.63;4993381;28;20269;-27
2021/08/23 01:21:14;;;;;;;2.95;1.42;;;;;;;28.59;37.70;97011.22;4992517;28;20034;-30
2021/08/23 01:23:42;;;;;;;1.77;1.10;;;;;;;28.59;37.52;97015.63;4989196;28;20029;-27
2021/08/23 01:26:07;;;;;;;1.92;1.20;;;;;;;28.58;37.80;97014.78;4987908;28;20100;-26
2021/08/23 01:28:54;;;;;;;3.00;1.17;;;;;;;28.59;37.68;97013.00;4975255;28;20461;-28
2021/08/23 01:31:42;;;;;;;3.28;1.35;;;;;;;28.58;37.58;97009.53;5007829;28;20045;-29
2021/08/23 01:34:08;;;;;;;4.70;1.45;;;;;;;28.57;37.70;97007.84;4997719;28;20042;-27
2021/08/23 01:36:33;;;;;;;2.55;1.20;;;;;;;28.56;37.84;96996.44;4981063;28;20567;-27
2021/08/23 01:38:59;;;;;;;2.03;0.90;;;;;;;28.57;37.80;97002.56;4971795;28;20044;-26
2021/08/23 01:41:24;;;;;;;1.13;0.93;;;;;;;28.56;37.55;97006.13;4986043;28;20527;-28
2021/08/23 01:43:50;;;;;;;2.25;1.13;;;;;;;28.58;37.85;97004.25;4974887;28;20026;-27
2021/08/23 01:46:15;;;;;;;1.17;1.00;;;;;;;28.58;37.77;97004.25;4999274;28;20026;-28
2021/08/23 01:48:40;;;;;;;1.98;1.27;;;;;;;28.56;37.54;97000.84;4987632;28;20393;-25
2021/08/23 01:51:06;;;;;;;2.67;1.10;;;;;;;28.57;37.60;97007.84;4981671;28;20376;-28
2021/08/23 01:53:31;;;;;;;2.33;1.10;;;;;;;28.57;37.59;97002.56;4996686;28;20587;-31
2021/08/23 01:55:57;;;;;;;3.40;1.10;;;;;;;28.56;37.58;97003.47;4991441;28;20076;-30
2021/08/23 01:58:22;;;;;;;1.45;1.23;;;;;;;28.58;37.46;97003.41;4988446;28;20664;-27
2021/08/23 02:00:47;;;;;;;3.95;1.30;;;;;;;28.57;37.61;97002.56;4995492;28;20033;-30
2021/08/23 02:03:13;;;;;;;3.40;1.15;;;;;;;28.58;37.50;97009.53;4996895;28;20028;-25
2021/08/23 02:05:38;;;;;;;1.88;0.95;;;;;;;28.58;37.63;96998.13;5002775;28;20029;-28
2021/08/23 02:08:04;;;;;;;1.08;0.88;;;;;;;28.57;37.58;97002.56;4999510;28;20042;-27
2021/08/23 02:10:31;;;;;;;2.80;1.20;;;;;;;28.57;37.72;97007.84;4996332;28;20034;-29
2021/08/23 02:12:56;;;;;;;1.48;1.00;;;;;;;28.57;37.61;97010.47;5003052;28;20017;-28
2021/08/23 02:15:21;;;;;;;3.25;1.20;;;;;;;28.57;37.84;97007.84;4992520;28;20088;-27
2021/08/23 02:17:47;;;;;;;1.40;1.10;;;;;;;28.55;37.46;96993.88;4994868;28;20042;-28
2021/08/23 02:20:12;;;;;;;4.38;1.35;;;;;;;28.57;37.50;96999.94;5000491;28;20056;-29
2021/08/23 02:22:38;;;;;;;1.80;1.15;;;;;;;28.56;37.63;96990.31;5000121;28;20105;-30
2021/08/23 02:25:04;;;;;;;3.35;1.10;;;;;;;28.57;37.56;96994.66;4990872;28;20038;-27
2021/08/23 02:27:30;;;;;;;1.52;1.10;;;;;;;28.56;37.44;96992.94;4991695;28;20033;-26
2021/08/23 02:29:55;;;;;;;1.50;1.20;;;;;;;28.56;37.71;96988.53;5001357;28;20107;-27
2021/08/23 02:32:20;;;;;;;2.38;1.02;;;;;;;28.57;37.67;96992.03;4991222;28;20503;-27
2021/08/23 02:34:46;;;;;;;7.03;1.27;;;;;;;28.56;37.47;96985.03;5002010;28;20037;-26
2021/08/23 02:37:11;;;;;;;3.75;1.00;;;;;;;28.58;37.81;96998.13;4995298;28;20496;-29
2021/08/23 02:39:36;;;;;;;2.80;1.33;;;;;;;28.56;37.67;96990.31;4990880;28;20037;-30
2021/08/23 02:42:02;;;;;;;1.38;0.95;;;;;;;28.56;37.68;96995.56;4994386;28;20177;-27
2021/08/23 02:44:27;;;;;;;2.65;0.98;;;;;;;28.55;37.50;96989.47;4992617;28;20029;-28
2021/08/23 02:46:53;;;;;;;1.95;1.00;;;;;;;28.56;37.19;96995.56;4989059;28;20095;-27
2021/08/23 02:49:18;;;;;;;1.65;1.02;;;;;;;28.56;37.49;96995.56;4995790;28;20045;-28
2021/08/23 02:51:44;;;;;;;1.90;1.00;;;;;;;28.56;37.70;96995.56;4995044;28;20025;-27
2021/08/23 02:54:10;;;;;;;1.85;1.00;;;;;;;28.56;37.68;96995.56;5002911;28;20563;-28
2021/08/23 02:56:35;;;;;;;1.27;0.95;;;;;;;28.57;37.62;97002.56;4995117;28;20032;-28
2021/08/23 02:59:01;;;;;;;1.55;1.10;;;;;;;28.55;37.52;97000.00;4997223;28;20037;-27
2021/08/23 03:01:26;;;;;;;1.50;1.10;;;;;;;28.57;37.48;97002.56;5001098;28;20538;-27
2021/08/23 03:03:51;;;;;;;2.45;1.25;;;;;;;28.56;37.52;97001.72;5000394;28;20037;-30
2021/08/23 03:06:17;;;;;;;3.17;1.48;;;;;;;28.56;37.58;97006.13;4996757;28;20038;-29
2021/08/23 03:08:42;;;;;;;3.30;1.10;;;;;;;28.56;37.58;97000.84;4994251;28;20041;-28
2021/08/23 03:11:08;;;;;;;1.80;0.88;;;;;;;28.55;37.59;97000.00;4992195;28;20095;-30
2021/08/23 03:13:34;;;;;;;1.48;0.98;;;;;;;28.56;37.75;96995.56;4994111;28;20026;-28
2021/08/23 03:15:59;;;;;;;1.40;0.80;;;;;;;28.55;37.59;96989.47;4998593;28;20033;-28
2021/08/23 03:18:25;;;;;;;2.10;1.15;;;;;;;28.55;37.65;96989.47;4997272;28;20037;-28
2021/08/23 03:20:50;;;;;;;1.20;1.00;;;;;;;28.54;37.53;96989.56;4993899;28;20025;-29
2021/08/23 03:23:15;;;;;;;1.83;1.30;;;;;;;28.54;37.70;96987.75;4991910;28;20479;-28
2021/08/23 03:25:44;;;;;;;1.38;1.02;;;;;;;28.55;37.39;96988.63;4993875;28;20026;-28
2021/08/23 03:28:09;;;;;;;1.73;1.10;;;;;;;28.55;37.46;96988.63;5001896;28;20061;-28
2021/08/23 03:30:34;;;;;;;1.55;0.82;;;;;;;28.54;37.62;96990.38;4993686;28;20041;-29
2021/08/23 03:33:00;;;;;;;1.98;1.13;;;;;;;28.54;37.46;96993.03;4996932;28;20547;-28
2021/08/23 03:35:25;;;;;;;1.75;1.10;;;;;;;28.54;37.56;96987.75;4997717;28;20607;-29
2021/08/23 03:37:51;;;;;;;1.10;1.00;;;;;;;28.54;37.64;96993.03;4996333;28;20058;-30
2021/08/23 03:40:16;;;;;;;3.50;0.90;;;;;;;28.54;37.38;96993.03;4991777;28;20042;-29
2021/08/23 03:42:42;;;;;;;1.30;0.90;;;;;;;28.54;37.28;96994.84;4994166;28;20095;-30
2021/08/23 03:45:07;;;;;;;0.95;0.80;;;;;;;28.53;37.54;96990.50;4994576;28;20104;-29
2021/08/23 03:47:33;;;;;;;1.85;1.00;;;;;;;28.54;37.40;97002.75;4991269;28;20040;-28
2021/08/23 03:49:58;;;;;;;1.60;1.00;;;;;;;28.53;37.35;96998.41;4998367;28;20061;-28
2021/08/23 03:52:24;;;;;;;2.45;0.88;;;;;;;28.53;37.44;96996.59;4997567;28;20034;-26
2021/08/23 03:54:49;;;;;;;1.10;0.90;;;;;;;28.53;37.48;97001.88;4997797;28;20032;-30
2021/08/23 03:57:15;;;;;;;0.80;0.80;;;;;;;28.53;37.39;96995.78;4991183;28;20026;-28
2021/08/23 03:59:40;;;;;;;1.63;1.00;;;;;;;28.52;37.54;97005.47;5000364;28;20026;-28
2021/08/23 04:02:05;;;;;;;1.92;1.02;;;;;;;28.54;37.55;97002.75;4999528;28;20452;-26
2021/08/23 04:04:31;;;;;;;1.65;0.90;;;;;;;28.53;37.55;96998.41;4999165;28;20045;-27
2021/08/23 04:06:56;;;;;;;1.60;1.00;;;;;;;28.53;37.46;97001.06;4997902;28;20030;-30
2021/08/23 04:09:22;;;;;;;3.47;0.90;;;;;;;28.53;37.46;97006.34;4994496;28;20084;-29
2021/08/23 04:11:47;;;;;;;3.85;1.33;;;;;;;28.53;37.57;97006.34;4998629;28;20030;-28
2021/08/23 04:14:12;;;;;;;1.63;1.05;;;;;;;28.53;37.56;97001.06;4997794;28;20036;-27
2021/08/23 04:16:38;;;;;;;1.38;1.00;;;;;;;28.52;37.55;97004.59;4989669;28;20451;-27
2021/08/23 04:19:03;;;;;;;3.70;1.10;;;;;;;28.52;37.52;97004.59;4995042;28;20128;-27
2021/08/23 04:21:31;;;;;;;2.78;1.27;;;;;;;28.51;37.51;97002.91;4998084;28;20089;-27
2021/08/23 04:23:57;;;;;;;3.17;1.02;;;;;;;28.53;37.49;97006.34;4989778;28;20034;-29
2021/08/23 04:26:22;;;;;;;1.92;1.00;;;;;;;28.52;37.54;97009.88;4989329;28;20049;-28
2021/08/23 04:28:48;;;;;;;1.45;1.20;;;;;;;28.52;37.48;97004.59;4994063;28;20319;-28
2021/08/23 04:31:13;;;;;;;2.53;0.90;;;;;;;28.51;37.53;97011.69;4997780;28;20896;-29
2021/08/23 04:33:41;;;;;;;3.53;1.30;;;;;;;28.52;37.50;97012.53;4996483;28;20488;-28
2021/08/23 04:36:06;;;;;;;1.65;1.00;;;;;;;28.51;37.47;97005.56;4997802;28;20034;-30
2021/08/23 04:38:31;;;;;;;1.55;0.93;;;;;;;28.52;37.45;97009.88;4994774;28;20030;-28
2021/08/23 04:40:57;;;;;;;3.05;1.05;;;;;;;28.52;37.61;97007.25;4990336;28;20034;-29
2021/08/23 04:43:22;;;;;;;1.58;1.15;;;;;;;28.51;37.64;97014.31;4993172;28;22044;-26
2021/08/23 04:45:47;;;;;;;2.47;1.10;;;;;;;28.52;37.43;97020.44;4991822;28;20045;-28
2021/08/23 04:48:13;;;;;;;2.65;1.08;;;;;;;28.51;37.56;97024.00;4987034;28;20099;-27
2021/08/23 04:50:38;;;;;;;2.67;1.10;;;;;;;28.51;37.46;97024.00;4994036;28;20113;-28
2021/08/23 04:53:04;;;;;;;1.55;0.73;;;;;;;28.51;37.44;97018.75;4990013;28;20034;-27
2021/08/23 04:55:29;;;;;;;2.85;0.90;;;;;;;28.52;37.42;97030.97;4990002;28;20025;-27
2021/08/23 04:57:54;;;;;;;1.63;1.10;;;;;;;28.52;37.44;97028.34;4985087;28;20037;-28
2021/08/23 05:00:20;;;;;;;2.80;0.80;;;;;;;28.51;37.46;97021.38;4988348;28;20034;-27
2021/08/23 05:02:45;;;;;;;2.28;1.15;;;;;;;28.52;37.62;97020.44;4992542;28;20018;-28
2021/08/23 05:05:11;;;;;;;1.67;0.93;;;;;;;28.51;37.45;97021.38;4997558;28;20029;-29
2021/08/23 05:07:36;;;;;;;1.27;0.98;;;;;;;28.51;37.43;97022.22;4987568;28;20412;-28
2021/08/23 05:10:02;;;;;;;2.63;1.10;;;;;;;28.51;37.43;97024.00;4989643;28;20025;-28
2021/08/23 05:12:28;;;;;;;1.80;1.17;;;;;;;28.51;37.34;97029.28;4991075;28;20022;-28
2021/08/23 05:14:53;;;;;;;4.80;1.08;;;;;;;28.49;37.56;97026.75;4996420;28;20036;-28
2021/08/23 05:17:18;;;;;;;2.13;0.98;;;;;;;28.51;37.61;97029.28;4991213;28;20040;-29
2021/08/23 05:19:44;;;;;;;3.55;0.95;;;;;;;28.50;37.45;97025.81;4990863;28;20022;-27
2021/08/23 05:22:09;;;;;;;1.33;0.82;;;;;;;28.51;37.56;97018.75;4997980;28;20424;-25
2021/08/23 05:24:35;;;;;;;2.60;1.00;;;;;;;28.50;37.46;97017.91;4993636;28;20034;-27
2021/08/23 05:27:02;;;;;;;3.47;1.25;;;;;;;28.50;37.57;97023.19;4996941;28;20022;-28
2021/08/23 05:29:28;;;;;;;2.65;1.00;;;;;;;28.50;37.27;97028.47;4994365;28;20132;-27
2021/08/23 05:31:53;;;;;;;2.38;1.10;;;;;;;28.50;37.36;97022.31;4997179;28;20022;-27
2021/08/23 05:34:18;;;;;;;3.25;1.10;;;;;;;28.51;37.19;97030.16;4994153;28;22061;-25
2021/08/23 05:36:44;;;;;;;2.42;0.90;;;;;;;28.50;37.43;97027.59;4995495;28;20100;-27
2021/08/23 05:39:09;;;;;;;1.58;0.90;;;;;;;28.50;37.33;97024.97;5002826;28;20034;-27
2021/08/23 05:41:35;;;;;;;2.47;1.00;;;;;;;28.51;37.42;97031.91;4994641;28;20600;-26
2021/08/23 05:44:00;;;;;;;1.92;1.10;;;;;;;28.50;37.25;97030.22;4996928;28;20046;-28
2021/08/23 05:46:25;;;;;;;2.60;1.25;;;;;;;28.51;37.42;97037.19;4994773;28;20030;-27
2021/08/23 05:48:51;;;;;;;3.38;1.38;;;;;;;28.50;37.45;97038.13;4993576;28;20049;-25
2021/08/23 05:51:17;;;;;;;2.20;0.95;;;;;;;28.50;37.44;97038.13;4991992;28;20239;-29
2021/08/23 05:53:42;;;;;;;2.15;1.27;;;;;;;28.50;37.54;97027.59;4995517;28;20129;-27
2021/08/23 05:56:08;;;;;;;1.92;0.80;;;;;;;28.50;37.45;97031.09;4994814;28;20065;-29
2021/08/23 05:58:34;;;;;;;1.35;0.80;;;;;;;28.51;37.26;97029.28;4987802;28;20038;-26
2021/08/23 06:00:59;;;;;;;5.07;1.38;;;;;;;28.50;37.53;97027.59;4989977;28;20081;-25
2021/08/23 06:03:24;;;;;;;2.25;1.05;;;;;;;28.49;37.60;97032.00;4991490;28;20480;-29
2021/08/23 06:05:50;;;;;;;2.38;1.10;;;;;;;28.50;37.55;97030.22;4997403;28;20025;-28
2021/08/23 06:08:15;;;;;;;1.77;0.90;;;;;;;28.49;37.43;97026.75;4989856;28;20030;-28
2021/08/23 06:10:41;;;;;;;2.15;1.02;;;;;;;28.51;37.25;97024.00;4994493;28;20038;-28
2021/08/23 06:13:06;;;;;;;2.60;1.23;;;;;;;28.51;37.35;97026.66;4993325;28;20030;-29
2021/08/23 06:15:32;;;;;;;2.35;1.17;;;;;;;28.50;37.49;97022.31;4994320;28;20038;-28
2021/08/23 06:17:57;;;;;;;2.60;1.00;;;;;;;28.50;37.59;97022.31;4982141;28;20596;-26
2021/08/23 06:20:22;;;;;;;1.98;1.00;;;;;;;28.50;37.48;97022.31;4981211;28;20029;-27
2021/08/23 06:22:49;;;;;;;1.65;1.00;;;;;;;28.50;37.06;97030.22;4979085;28;20045;-31
2021/08/23 06:25:15;;;;;;;1.38;0.85;;;;;;;28.49;37.46;97024.09;4992049;28;20057;-29
2021/08/23 06:27:40;;;;;;;3.33;0.98;;;;;;;28.46;37.48;97020.81;4989854;28;20041;-27
2021/08/23 06:30:06;;;;;;;2.75;1.25;;;;;;;28.50;37.64;97028.47;4990781;28;20546;-27
2021/08/23 06:32:32;;;;;;;3.35;0.80;;;;;;;28.49;37.41;97026.75;5003410;28;21058;-27
2021/08/23 06:34:57;;;;;;;2.15;1.20;;;;;;;28.49;37.74;97026.75;4994012;28;20030;-27
2021/08/23 06:37:22;;;;;;;4.25;1.17;;;;;;;28.50;37.75;97027.59;4991023;28;20030;-30
2021/08/23 06:39:48;;;;;;;5.78;2.42;;;;;;;28.49;37.32;97018.00;5001910;28;20500;-25
2021/08/23 06:42:13;;;;;;;13.65;2.70;;;;;;;28.50;37.47;97024.97;4983931;28;20946;-27
2021/08/23 06:44:40;;;;;;;9.50;2.20;;;;;;;28.49;37.82;97028.53;4983622;28;20029;-28
2021/08/23 06:47:05;;;;;;;11.15;2.30;;;;;;;28.49;37.64;97023.28;4988475;28;20037;-28
2021/08/23 06:49:31;;;;;;;11.30;2.58;;;;;;;28.48;37.72;97029.47;4990731;28;20499;-29
2021/08/23 06:51:56;;;;;;;18.45;2.90;;;;;;;28.46;37.51;97028.72;4994323;28;20408;-26
2021/08/23 06:54:21;;;;;;;7.10;2.50;;;;;;;28.41;36.99;97024.56;4994311;28;20041;-29
2021/08/23 06:56:47;;;;;;;8.23;2.17;;;;;;;28.36;36.97;97026.66;4992131;28;20045;-31
2021/08/23 06:59:12;;;;;;;5.43;2.03;;;;;;;28.30;36.83;97029.66;5009832;28;20037;-30
2021/08/23 07:01:38;;;;;;;6.00;2.25;;;;;;;28.22;36.98;97018.69;5005197;28;20696;-28
2021/08/23 07:04:04;;;;;;;6.18;1.92;;;;;;;28.14;36.90;97017.34;5010453;28;20029;-26
2021/08/23 07:06:29;;;;;;;7.07;1.73;;;;;;;28.07;36.80;97023.91;5009234;28;23039;-29
2021/08/23 07:08:55;;;;;;;6.63;2.00;;;;;;;27.99;36.94;97034.06;5010432;28;20495;-29
2021/08/23 07:11:20;;;;;;;5.20;1.98;;;;;;;27.90;37.28;97031.03;5010205;28;21862;-28
2021/08/23 07:13:46;;;;;;;4.90;1.85;;;;;;;27.85;37.08;97032.25;5009770;28;20037;-28
2021/08/23 07:16:11;;;;;;;4.85;1.85;;;;;;;27.78;37.03;97031.75;5010322;28;20029;-28
2021/08/23 07:18:36;;;;;;;9.88;2.00;;;;;;;27.73;37.32;97031.16;5011398;28;20057;-29
2021/08/23 07:21:02;;;;;;;5.95;2.17;;;;;;;27.68;37.46;97027.94;5010955;28;20128;-29
2021/08/23 07:23:28;;;;;;;7.65;1.98;;;;;;;27.63;37.47;97026.44;5011234;28;20061;-28
2021/08/23 07:25:53;;;;;;;4.00;1.80;;;;;;;27.58;37.33;97025.78;5012240;28;20029;-26
2021/08/23 07:28:19;;;;;;;6.38;1.80;;;;;;;27.55;37.56;97028.63;5010131;28;20045;-28
2021/08/23 07:30:45;;;;;;;5.60;1.45;;;;;;;27.53;37.75;97038.38;5010798;28;20057;-27
2021/08/23 07:33:10;;;;;;;6.50;2.20;;;;;;;27.51;37.61;97034.97;5010528;28;20068;-28
2021/08/23 07:35:35;;;;;;;5.35;2.00;;;;;;;27.49;37.51;97031.56;5009810;28;20761;-28
2021/08/23 07:38:01;;;;;;;4.28;1.95;;;;;;;27.47;37.75;97038.72;5011531;28;20025;-27
2021/08/23 07:40:26;;;;;;;5.82;2.10;;;;;;;27.46;37.63;97026.50;5008073;28;20021;-28
2021/08/23 07:42:52;;;;;;;6.50;2.25;;;;;;;27.44;37.87;97026.59;5009471;28;20407;-30
2021/08/23 07:45:18;;;;;;;9.40;2.10;;;;;;;27.45;37.79;97024.78;5006095;28;20483;-30
2021/08/23 07:47:44;;;;;;;6.80;2.20;;;;;;;27.45;38.09;97024.78;5006803;28;20036;-26
2021/08/23 07:50:11;;;;;;;8.48;1.90;;;;;;;27.46;37.98;97034.41;5007411;28;20026;-29
2021/08/23 07:52:36;;;;;;;5.38;1.95;;;;;;;27.46;38.06;97032.59;5010415;28;20036;-28
2021/08/23 07:55:02;;;;;;;6.25;2.17;;;;;;;27.47;37.77;97028.19;5012268;28;20029;-25
2021/08/23 07:57:27;;;;;;;5.47;2.00;;;;;;;27.49;37.67;97036.84;5011453;28;20041;-28
2021/08/23 07:59:53;;;;;;;12.30;2.20;;;;;;;27.48;37.69;97029.88;5014471;28;20029;-26
2021/08/23 08:02:18;;;;;;;4.85;2.15;;;;;;;27.49;37.72;97031.56;4997044;28;20436;-27
2021/08/23 08:04:44;;;;;;;3.72;2.00;;;;;;;27.50;37.79;97035.94;5010366;28;20031;-26
2021/08/23 08:07:09;;;;;;;6.32;2.38;;;;;;;27.49;37.62;97036.84;4974014;28;22227;-28
2021/08/23 08:09:35;;;;;;;10.27;2.45;;;;;;;27.47;37.51;97030.81;5003424;28;20483;-28
2021/08/23 08:12:01;;;;;;;7.70;2.22;;;;;;;27.47;37.55;97036.09;5007266;28;20204;-26
2021/08/23 08:14:27;;;;;;;9.00;2.40;;;;;;;27.46;37.37;97031.78;4990958;28;20029;-28
2021/08/23 08:16:53;;;;;;;4.35;1.67;;;;;;;27.50;37.31;97035.94;5007206;28;20040;-27
2021/08/23 08:19:18;;;;;;;4.18;1.67;;;;;;;27.49;37.17;97028.94;5009124;28;21901;-30
2021/08/23 08:21:43;;;;;;;7.10;2.30;;;;;;;27.49;37.05;97036.84;5008382;28;20037;-28
2021/08/23 08:24:09;;;;;;;7.05;2.20;;;;;;;27.50;36.73;97033.28;4989065;28;20021;-31
2021/08/23 08:26:34;;;;;;;4.63;2.00;;;;;;;27.51;36.76;97034.97;5006078;28;20048;-26
2021/08/23 08:29:00;;;;;;;7.85;2.13;;;;;;;27.50;36.73;97043.81;5004662;28;20503;-29
2021/08/23 08:31:25;;;;;;;3.90;2.20;;;;;;;27.50;36.42;97039.38;5010296;28;20048;-26
2021/08/23 08:33:51;;;;;;;3.22;1.77;;;;;;;27.50;36.26;97028.03;5012156;28;20033;-31
2021/08/23 08:36:17;;;;;;;4.68;1.90;;;;;;;27.50;36.25;97036.75;5013560;28;20033;-28
2021/08/23 08:38:42;;;;;;;6.78;1.90;;;;;;;27.50;36.52;97033.28;5010352;28;20041;-25
2021/08/23 08:41:08;;;;;;;4.05;2.08;;;;;;;27.50;36.64;97028.84;5012294;28;20026;-30
2021/08/23 08:43:33;;;;;;;6.13;2.47;;;;;;;27.50;36.60;97034.13;5012727;28;20029;-29
2021/08/23 08:45:58;;;;;;;3.40;2.10;;;;;;;27.53;36.58;97038.38;5009849;28;20049;-29
2021/08/23 08:48:24;;;;;;;5.07;2.30;;;;;;;27.54;36.69;97034.81;5012670;28;20033;-27
2021/08/23 08:50:49;;;;;;;3.30;1.92;;;;;;;27.56;36.38;97034.72;5006170;28;20021;-27
2021/08/23 08:53:15;;;;;;;8.32;2.15;;;;;;;27.58;36.30;97033.69;5009671;28;20029;-29
2021/08/23 08:55:41;;;;;;;6.78;2.10;;;;;;;27.60;36.54;97033.59;5011662;28;20108;-29
2021/08/23 08:58:08;;;;;;;5.60;2.17;;;;;;;27.62;36.62;97027.34;5012421;28;20044;-26
2021/08/23 09:00:38;;;;;;;6.43;2.42;;;;;;;27.64;36.79;97036.00;5014236;28;20029;-31
2021/08/23 09:03:04;;;;;;;6.50;2.67;;;;;;;27.68;36.95;97036.69;5017304;28;20025;-27
2021/08/23 09:05:41;;;;;;;7.15;2.75;;;;;;;27.72;36.95;97042.63;5016515;28;20650;-29
2021/08/23 09:08:07;;;;;;;10.52;2.90;;;;;;;27.75;36.82;97042.44;5027448;28;20707;-29
2021/08/23 09:10:41;;;;;;;7.90;2.63;;;;;;;27.80;36.92;97050.09;5013805;28;20029;-28
2021/08/23 09:13:11;;;;;;;10.23;2.80;;;;;;;27.82;36.97;97056.97;5027163;28;20148;-28
2021/08/23 09:15:39;;;;;;;7.75;2.53;;;;;;;27.84;36.99;97055.06;5014026;28;20477;-29
2021/08/23 09:18:08;;;;;;;10.02;3.08;;;;;;;27.86;36.71;97055.84;5015891;28;20040;-27
2021/08/23 09:20:34;;;;;;;6.53;2.80;;;;;;;27.86;36.88;97050.59;5014480;28;20549;-27
2021/08/23 09:23:13;;;;;;;12.30;3.28;;;;;;;27.91;36.84;97059.06;5010769;28;20545;-27
2021/08/23 09:25:39;;;;;;;7.72;2.85;;;;;;;27.93;36.86;97061.63;5014266;28;20195;-28
2021/08/23 09:28:05;;;;;;;8.57;3.17;;;;;;;27.95;36.83;97061.53;4994305;28;20030;-30
2021/08/23 09:30:31;;;;;;;10.52;3.10;;;;;;;27.98;36.78;97061.34;5009722;28;20615;-28
2021/08/23 09:32:59;;;;;;;6.53;2.88;;;;;;;27.99;36.95;97060.41;5018721;28;20112;-28
2021/08/23 09:35:33;;;;;;;6.95;2.80;;;;;;;28.01;36.93;97058.53;5002719;28;20782;-26
2021/08/23 09:37:59;;;;;;;9.65;2.65;;;;;;;28.01;37.04;97059.38;5013244;28;20630;-27
2021/08/23 09:40:27;;;;;;;9.90;2.97;;;;;;;28.04;36.87;97055.72;5010575;28;20501;-27
2021/08/23 09:43:08;;;;;;;5.57;2.55;;;;;;;28.04;36.93;97059.19;5012680;28;20033;-28
2021/08/23 09:45:34;;;;;;;9.27;3.00;;;;;;;28.07;37.04;97060.78;5010962;28;20036;-29
2021/08/23 09:48:04;;;;;;;6.28;2.67;;;;;;;28.09;37.21;97065.97;5012429;28;20025;-28
2021/08/23 09:51:00;;;;;;;6.03;2.63;;;;;;;28.09;37.05;97071.25;5013288;28;20117;-29
2021/08/23 09:53:25;;;;;;;7.43;2.80;;;;;;;28.10;36.93;97062.44;5008379;28;20042;-29
2021/08/23 09:55:51;;;;;;;7.53;2.70;;;;;;;28.12;37.27;97064.03;5013316;28;20026;-28
2021/08/23 09:58:17;;;;;;;6.20;2.30;;;;;;;28.12;36.95;97077.22;5010814;28;20409;-29
2021/08/23 10:00:43;;;;;;;5.75;2.45;;;;;;;28.13;37.23;97073.63;5013609;28;20029;-27
2021/08/23 10:03:16;;;;;;;10.07;2.67;;;;;;;28.15;37.09;97071.72;5012853;28;20029;-25
2021/08/23 10:05:42;;;;;;;4.38;2.05;;;;;;;28.15;37.10;97077.00;5011182;28;20033;-28
2021/08/23 10:08:08;;;;;;;5.25;2.22;;;;;;;28.15;37.28;97066.47;5002082;28;20039;-27
2021/08/23 10:10:33;;;;;;;4.45;2.22;;;;;;;28.17;37.25;97063.75;4980613;28;20041;-29
2021/08/23 10:12:58;;;;;;;6.35;2.30;;;;;;;28.19;37.26;97069.78;4997040;28;20083;-28
2021/08/23 10:15:24;;;;;;;4.43;2.15;;;;;;;28.21;37.18;97067.03;4976298;28;20507;-27
2021/08/23 10:17:49;;;;;;;4.85;1.83;;;;;;;28.22;37.25;97068.75;5002781;28;20028;-27
2021/08/23 10:20:14;;;;;;;7.05;2.33;;;;;;;28.23;37.25;97065.19;5017360;28;20882;-29
2021/08/23 10:22:40;;;;;;;5.45;2.30;;;;;;;28.23;37.35;97057.28;5000199;28;20022;-28
2021/08/23 10:25:07;;;;;;;5.45;2.10;;;;;;;28.25;37.30;97060.66;5000627;28;20063;-28
2021/08/23 10:27:33;;;;;;;8.52;2.28;;;;;;;28.26;37.52;97059.78;5004409;28;20179;-30
2021/08/23 10:29:58;;;;;;;5.47;2.03;;;;;;;28.26;37.57;97062.41;5014950;28;20052;-28
2021/08/23 10:32:36;;;;;;;4.80;2.25;;;;;;;28.23;37.59;97052.88;5005326;28;20468;-28
2021/08/23 10:35:21;;;;;;;5.78;2.40;;;;;;;28.28;37.69;97060.50;5029494;28;20025;-28
2021/08/23 10:37:48;;;;;;;5.95;2.13;;;;;;;28.28;37.56;97060.50;5002758;28;20795;-28
2021/08/23 10:40:13;;;;;;;4.60;2.05;;;;;;;28.30;37.92;97058.66;5002265;28;20030;-28
2021/08/23 10:42:40;;;;;;;5.78;2.30;;;;;;;28.30;37.67;97063.91;5007334;28;20032;-28
2021/08/23 10:45:10;;;;;;;4.35;1.83;;;;;;;28.30;37.80;97062.13;5006593;28;20908;-29
2021/08/23 10:47:35;;;;;;;5.05;2.00;;;;;;;28.32;37.62;97059.38;5006694;28;20510;-27
2021/08/23 10:50:01;;;;;;;5.63;1.95;;;;;;;28.33;37.98;97063.72;5010443;28;20048;-28
2021/08/23 10:52:30;;;;;;;4.72;2.08;;;;;;;28.34;37.64;97061.94;5009382;28;20036;-27
2021/08/23 10:54:56;;;;;;;6.40;1.75;;;;;;;28.34;37.83;97060.13;5011020;28;20033;-29
2021/08/23 10:57:22;;;;;;;5.75;1.83;;;;;;;28.36;37.62;97057.41;5010103;28;20029;-26
2021/08/23 10:59:48;;;;;;;4.22;2.08;;;;;;;28.36;37.84;97058.28;5032718;28;20067;-27
2021/08/23 11:02:14;;;;;;;5.22;2.00;;;;;;;28.37;37.77;97059.97;5012044;28;20029;-29
2021/08/23 11:05:10;;;;;;;6.22;2.40;;;;;;;28.37;37.95;97059.97;5016580;28;20037;-29
2021/08/23 11:07:40;;;;;;;5.13;1.92;;;;;;;28.39;38.00;97052.81;5010010;28;20045;-29
2021/08/23 11:10:12;;;;;;;9.02;2.40;;;;;;;28.40;37.81;97049.25;5009153;28;20038;-26
2021/08/23 11:12:41;;;;;;;;;;;;;;;28.41;37.88;97052.72;5010174;28;20029;-26
2021/08/23 11:15:20;;;;;;;4.47;1.70;;;;;;;28.41;38.02;97044.81;5010775;28;19916;-27
2021/08/23 11:17:56;;;;;;;4.40;1.92;;;;;;;28.40;38.08;97046.59;5010738;28;20037;-26
2021/08/23 11:20:47;;;;;;;4.07;2.05;;;;;;;28.41;38.12;97043.03;5009993;28;20025;-28
2021/08/23 11:23:15;;;;;;;4.57;2.00;;;;;;;28.40;38.32;97038.69;5013759;28;20567;-28
2021/08/23 11:25:50;;;;;;;4.35;1.75;;;;;;;28.41;38.16;97035.13;5011973;28;20807;-28
2021/08/23 11:28:16;;;;;;;5.15;1.85;;;;;;;28.42;38.34;97042.06;5014000;28;20433;-28
2021/08/23 11:30:44;;;;;;;4.15;1.67;;;;;;;28.43;38.28;97042.94;5012516;28;20021;-27
2021/08/23 11:33:10;;;;;;;4.47;1.55;;;;;;;28.43;38.32;97038.53;5006587;28;20124;-26